Aviation Digital Data Service (ADDS)

Output produced by METARs form (0854 UTC 19 November 2018)
found at http://www.aviationweather.gov/metar/data/
 
RJNK 190800Z 06004KT 030V090 9999 -SHRA FEW015 SCT030 BKN040 11/08 Q1018
TAF RJNK 190510Z 1906/2012 06004KT 9999 FEW020 BKN040 
     BECMG 2000/2003 30005KT